Time;durP1;ratioP1;P1;durP2;ratioP2;P2;SDS_P1;SDS_P2;PMS_P1;PMS_P2;Temp;Humidity;BMP_temperature;BMP_pressure;BME280_temperature;BME280_humidity;BME280_pressure;Samples;Min_cycle;Max_cycle;Signal;HPM_P1;HPM_P2
2022/08/28 00:00:24;;;;;;;4.28;3.88;;;;;;;;;;5033169;28;20563;-78
2022/08/28 00:02:50;;;;;;;;;;;;;;;;;;5033757;28;20494;-78
2022/08/28 00:05:18;;;;;;;3.30;3.00;;;;;;;;;;5033666;28;19932;-78
2022/08/28 00:07:44;;;;;;;3.67;3.10;;;;;;;;;;5033477;28;20092;-78
2022/08/28 00:10:15;;;;;;;4.47;3.35;;;;;;;;;;5033418;28;20049;-78
2022/08/28 00:12:42;;;;;;;3.75;3.42;;;;;;;;;;5033288;28;20052;-77
2022/08/28 00:15:11;;;;;;;4.95;3.47;;;;;;;;;;5032514;28;20046;-77
2022/08/28 00:17:38;;;;;;;5.10;3.40;;;;;;;;;;5032964;28;20400;-78
2022/08/28 00:20:06;;;;;;;5.32;3.30;;;;;;;;;;5032915;28;20088;-78
2022/08/28 00:22:33;;;;;;;3.72;3.38;;;;;;;;;;5032806;28;20100;-78
2022/08/28 00:24:59;;;;;;;4.40;3.40;;;;;;;;;;5033150;28;20103;-78
2022/08/28 00:30:11;;;;;;;4.57;3.40;;;;;;;;;;5033011;28;20046;-78
2022/08/28 00:32:37;;;;;;;4.10;3.43;;;;;;;;;;5033042;28;20050;-78
2022/08/28 00:35:04;;;;;;;3.92;2.97;;;;;;;;;;5032647;28;20100;-78
2022/08/28 00:37:30;;;;;;;4.28;3.33;;;;;;;;;;5029958;28;20085;-78
2022/08/28 00:39:57;;;;;;;4.10;3.45;;;;;;;;;;5026897;28;20049;-78
2022/08/28 00:42:23;;;;;;;4.97;3.25;;;;;;;;;;5030963;28;20049;-78
2022/08/28 00:44:50;;;;;;;5.07;3.25;;;;;;;;;;5032080;28;20502;-78
2022/08/28 00:47:16;;;;;;;3.28;2.92;;;;;;;;;;5032349;28;20041;-78
2022/08/28 00:49:48;;;;;;;4.45;3.25;;;;;;;;;;5032396;28;20045;-79
2022/08/28 00:52:14;;;;;;;5.63;3.33;;;;;;;;;;5032531;28;20459;-79
2022/08/28 00:54:45;;;;;;;4.18;3.28;;;;;;;;;;5032315;28;20073;-79
2022/08/28 00:57:30;;;;;;;4.07;3.40;;;;;;;;;;5032225;28;20045;-78
2022/08/28 00:59:57;;;;;;;3.40;3.03;;;;;;;;;;5032458;28;20073;-78
2022/08/28 01:02:24;;;;;;;3.22;2.92;;;;;;;;;;5033029;28;20095;-78
2022/08/28 01:04:50;;;;;;;4.07;3.65;;;;;;;;;;5032152;28;20592;-78
2022/08/28 01:07:17;;;;;;;4.83;3.50;;;;;;;;;;5032272;28;20143;-78
2022/08/28 01:09:47;;;;;;;4.70;3.55;;;;;;;;;;5032356;28;20091;-78
2022/08/28 01:12:19;;;;;;;4.05;3.28;;;;;;;;;;5031957;28;20045;-78
2022/08/28 01:14:47;;;;;;;5.07;3.20;;;;;;;;;;5032475;28;20386;-77
2022/08/28 01:17:13;;;;;;;;;;;;;;;;;;5031443;28;20087;-78
2022/08/28 01:19:44;;;;;;;6.30;3.57;;;;;;;;;;5031975;28;19921;-78
2022/08/28 01:22:19;;;;;;;3.67;3.35;;;;;;;;;;5031646;28;20776;-78
2022/08/28 01:24:46;;;;;;;3.95;2.95;;;;;;;;;;5032254;28;20053;-78
2022/08/28 01:27:13;;;;;;;3.80;3.10;;;;;;;;;;5031812;28;20077;-78
2022/08/28 01:29:39;;;;;;;4.85;3.50;;;;;;;;;;5031974;28;20049;-78
2022/08/28 01:32:10;;;;;;;4.90;3.45;;;;;;;;;;5032076;28;20049;-78
2022/08/28 01:34:36;;;;;;;4.10;3.27;;;;;;;;;;5030577;28;20049;-78
2022/08/28 01:37:03;;;;;;;5.72;3.75;;;;;;;;;;5031868;28;20119;-78
2022/08/28 01:39:30;;;;;;;7.72;3.55;;;;;;;;;;5031626;28;20050;-78
2022/08/28 01:41:58;;;;;;;3.27;3.00;;;;;;;;;;5031579;28;20072;-78
2022/08/28 01:44:26;;;;;;;6.38;3.00;;;;;;;;;;5031391;28;20498;-78
2022/08/28 01:46:54;;;;;;;4.97;2.88;;;;;;;;;;5031545;28;20378;-78
2022/08/28 01:49:20;;;;;;;5.90;3.40;;;;;;;;;;5030971;28;20100;-78
2022/08/28 01:51:47;;;;;;;4.17;3.57;;;;;;;;;;5031688;28;20077;-78
2022/08/28 01:54:16;;;;;;;3.28;2.95;;;;;;;;;;5031640;28;20306;-78
2022/08/28 01:56:43;;;;;;;4.95;3.45;;;;;;;;;;5030129;28;20053;-78
2022/08/28 01:59:10;;;;;;;4.28;3.50;;;;;;;;;;5030361;28;20081;-78
2022/08/28 02:01:38;;;;;;;7.22;3.85;;;;;;;;;;5031360;28;20103;-78
2022/08/28 02:04:05;;;;;;;4.22;3.67;;;;;;;;;;5031387;28;20136;-78
2022/08/28 02:06:32;;;;;;;4.10;3.67;;;;;;;;;;5031439;28;20053;-77
2022/08/28 02:08:59;;;;;;;5.05;4.38;;;;;;;;;;5031589;28;20054;-77
2022/08/28 02:11:28;;;;;;;5.30;4.23;;;;;;;;;;5031186;28;20575;-77
2022/08/28 02:13:54;;;;;;;7.15;4.63;;;;;;;;;;5031178;28;20493;-77
2022/08/28 02:16:22;;;;;;;5.95;4.43;;;;;;;;;;5031441;28;20057;-77
2022/08/28 02:18:48;;;;;;;7.57;4.32;;;;;;;;;;5031248;28;20095;-77
2022/08/28 02:21:14;;;;;;;7.10;4.70;;;;;;;;;;5031177;28;20088;-78
2022/08/28 02:23:42;;;;;;;5.00;4.45;;;;;;;;;;5031326;28;20041;-78
2022/08/28 02:26:08;;;;;;;6.57;4.10;;;;;;;;;;5031495;28;20103;-78
2022/08/28 02:28:36;;;;;;;7.40;4.50;;;;;;;;;;5031343;28;20087;-78
2022/08/28 02:31:02;;;;;;;;;;;;;;;;;;5031555;28;20386;-78
2022/08/28 02:33:29;;;;;;;6.80;4.47;;;;;;;;;;5031342;28;19936;-78
2022/08/28 02:35:56;;;;;;;5.38;4.88;;;;;;;;;;5031016;28;20042;-78
2022/08/28 02:38:23;;;;;;;5.00;4.10;;;;;;;;;;5031359;28;20167;-77
2022/08/28 02:40:51;;;;;;;6.93;4.70;;;;;;;;;;5035081;28;20077;-78
2022/08/28 02:43:18;;;;;;;5.68;4.53;;;;;;;;;;5034955;28;20138;-78
2022/08/28 02:45:44;;;;;;;5.03;4.63;;;;;;;;;;5035234;28;20072;-78
2022/08/28 02:48:13;;;;;;;5.05;4.55;;;;;;;;;;5034528;28;20516;-78
2022/08/28 02:50:42;;;;;;;6.07;4.82;;;;;;;;;;5034913;28;20099;-78
2022/08/28 02:53:10;;;;;;;4.77;4.37;;;;;;;;;;5034946;28;20046;-78
2022/08/28 02:55:36;;;;;;;;;;;;;;;;;;5034884;28;20763;-78
2022/08/28 02:58:05;;;;;;;9.07;5.60;;;;;;;;;;5034551;28;20439;-78
2022/08/28 03:00:31;;;;;;;6.57;5.93;;;;;;;;;;5034546;28;20057;-78
2022/08/28 03:02:58;;;;;;;8.95;6.35;;;;;;;;;;5034641;28;20080;-78
2022/08/28 03:05:25;;;;;;;7.03;6.32;;;;;;;;;;5034796;28;20054;-78
2022/08/28 03:07:52;;;;;;;6.78;6.18;;;;;;;;;;5034272;28;20081;-78
2022/08/28 03:10:19;;;;;;;7.93;7.13;;;;;;;;;;5034670;28;20050;-78
2022/08/28 03:12:45;;;;;;;7.30;6.50;;;;;;;;;;5034504;28;20042;-78
2022/08/28 03:15:12;;;;;;;6.88;6.13;;;;;;;;;;5034244;28;20501;-78
2022/08/28 03:17:38;;;;;;;7.03;6.22;;;;;;;;;;5034065;28;20064;-78
2022/08/28 03:20:08;;;;;;;6.40;5.80;;;;;;;;;;5034375;28;20053;-78
2022/08/28 03:25:21;;;;;;;6.72;5.65;;;;;;;;;;5034081;28;19921;-78
2022/08/28 03:27:48;;;;;;;8.73;6.20;;;;;;;;;;5033999;28;20081;-78
2022/08/28 03:30:14;;;;;;;6.10;5.50;;;;;;;;;;5034223;28;20077;-78
2022/08/28 03:32:41;;;;;;;7.80;6.00;;;;;;;;;;5034151;28;20080;-78
2022/08/28 03:35:07;;;;;;;9.32;7.35;;;;;;;;;;5034055;28;20045;-78
2022/08/28 03:37:34;;;;;;;10.10;7.87;;;;;;;;;;5033965;28;20085;-78
2022/08/28 03:40:01;;;;;;;8.23;7.40;;;;;;;;;;5033688;28;20395;-78
2022/08/28 03:42:27;;;;;;;9.05;7.10;;;;;;;;;;5034070;28;20053;-78
2022/08/28 03:44:54;;;;;;;10.23;7.53;;;;;;;;;;5033574;28;20081;-78
2022/08/28 03:47:21;;;;;;;7.30;6.57;;;;;;;;;;5033513;28;20565;-78
2022/08/28 03:49:53;;;;;;;8.57;6.88;;;;;;;;;;5033531;28;20088;-78
2022/08/28 03:52:19;;;;;;;6.18;5.57;;;;;;;;;;5033485;28;20490;-78
2022/08/28 03:54:46;;;;;;;7.32;5.88;;;;;;;;;;5033395;28;20087;-78
2022/08/28 03:57:20;;;;;;;7.82;6.32;;;;;;;;;;5033252;28;20489;-78
2022/08/28 03:59:47;;;;;;;6.82;5.80;;;;;;;;;;5033308;28;20076;-78
2022/08/28 04:02:14;;;;;;;;;;;;;;;;;;5033779;28;20081;-78
2022/08/28 04:04:40;;;;;;;9.10;6.90;;;;;;;;;;5033403;28;19933;-79
2022/08/28 04:07:07;;;;;;;10.23;7.45;;;;;;;;;;5033506;28;20114;-78
2022/08/28 04:09:33;;;;;;;9.43;7.45;;;;;;;;;;5033055;28;20100;-78
2022/08/28 04:12:00;;;;;;;10.20;9.18;;;;;;;;;;5033136;28;20076;-78
2022/08/28 04:14:26;;;;;;;10.85;8.25;;;;;;;;;;5033405;28;20049;-78
2022/08/28 04:16:53;;;;;;;10.15;8.60;;;;;;;;;;5033433;28;20042;-78
2022/08/28 04:19:23;;;;;;;10.13;8.70;;;;;;;;;;5033233;28;20049;-79
2022/08/28 04:21:50;;;;;;;10.00;8.75;;;;;;;;;;5032252;28;20089;-79
2022/08/28 04:24:16;;;;;;;11.98;9.50;;;;;;;;;;5033305;28;20084;-78
2022/08/28 04:26:43;;;;;;;11.20;9.82;;;;;;;;;;5033166;28;20092;-78
2022/08/28 04:29:09;;;;;;;12.85;10.25;;;;;;;;;;5032833;28;20458;-78
2022/08/28 04:31:36;;;;;;;13.15;10.15;;;;;;;;;;5032857;28;20107;-78
2022/08/28 04:34:04;;;;;;;12.23;10.43;;;;;;;;;;5032925;28;20124;-78
2022/08/28 04:36:32;;;;;;;11.52;10.32;;;;;;;;;;5032611;28;20671;-78
2022/08/28 04:38:59;;;;;;;11.27;9.90;;;;;;;;;;5032996;28;20083;-78
2022/08/28 04:41:27;;;;;;;13.60;10.10;;;;;;;;;;5032934;28;20457;-78
2022/08/28 04:43:56;;;;;;;12.85;10.48;;;;;;;;;;5032684;28;20861;-78
2022/08/28 04:46:23;;;;;;;11.15;9.95;;;;;;;;;;5032672;28;20131;-78
2022/08/28 04:48:49;;;;;;;13.63;11.25;;;;;;;;;;5032648;28;20041;-78
2022/08/28 04:51:16;;;;;;;11.68;10.32;;;;;;;;;;5032781;28;20053;-78
2022/08/28 04:53:42;;;;;;;11.63;10.43;;;;;;;;;;5032495;28;20481;-78
2022/08/28 04:56:10;;;;;;;11.95;10.18;;;;;;;;;;5032840;28;20096;-78
2022/08/28 04:58:37;;;;;;;11.30;10.20;;;;;;;;;;5032359;28;20061;-78
2022/08/28 05:01:07;;;;;;;12.00;10.57;;;;;;;;;;5032075;28;20084;-78
2022/08/28 05:03:34;;;;;;;11.13;10.02;;;;;;;;;;5031875;28;20068;-78
2022/08/28 05:06:02;;;;;;;10.98;9.88;;;;;;;;;;5032406;28;20092;-78
2022/08/28 05:08:28;;;;;;;10.60;8.63;;;;;;;;;;5032201;28;20085;-78
2022/08/28 05:10:56;;;;;;;11.35;10.15;;;;;;;;;;5032035;28;20438;-78
2022/08/28 05:13:23;;;;;;;10.88;9.02;;;;;;;;;;5032273;28;20442;-78
2022/08/28 05:15:50;;;;;;;10.77;8.73;;;;;;;;;;5030756;28;20119;-78
2022/08/28 05:18:19;;;;;;;11.98;8.98;;;;;;;;;;5032248;28;20401;-78
2022/08/28 05:20:46;;;;;;;9.38;8.35;;;;;;;;;;5031991;28;20551;-78
2022/08/28 05:23:14;;;;;;;9.85;8.85;;;;;;;;;;5032177;28;20049;-78
2022/08/28 05:25:42;;;;;;;10.93;8.88;;;;;;;;;;5032148;28;20053;-78
2022/08/28 05:28:09;;;;;;;11.07;8.63;;;;;;;;;;5031981;28;20092;-78
2022/08/28 05:30:38;;;;;;;10.30;9.23;;;;;;;;;;5030624;28;20107;-78
2022/08/28 05:33:06;;;;;;;11.70;9.02;;;;;;;;;;5031886;28;20045;-78
2022/08/28 05:35:37;;;;;;;9.82;8.93;;;;;;;;;;5030330;28;20046;-78
2022/08/28 05:38:04;;;;;;;9.07;8.18;;;;;;;;;;5031847;28;20049;-78
2022/08/28 05:40:31;;;;;;;11.55;8.35;;;;;;;;;;5031992;28;20045;-78
2022/08/28 05:42:57;;;;;;;9.65;8.00;;;;;;;;;;5031917;28;20410;-78
2022/08/28 05:45:24;;;;;;;9.18;8.27;;;;;;;;;;5031751;28;20413;-78
2022/08/28 05:47:51;;;;;;;9.87;8.70;;;;;;;;;;5030320;28;20053;-78
2022/08/28 05:50:18;;;;;;;10.05;8.52;;;;;;;;;;5031411;28;20413;-78
2022/08/28 05:52:44;;;;;;;12.30;8.63;;;;;;;;;;5031825;28;20046;-78
2022/08/28 05:55:11;;;;;;;9.15;8.25;;;;;;;;;;5031604;28;20537;-78
2022/08/28 05:57:38;;;;;;;9.55;8.60;;;;;;;;;;5031363;28;20563;-78
2022/08/28 06:00:05;;;;;;;11.68;8.38;;;;;;;;;;5031348;28;20049;-78
2022/08/28 06:02:33;;;;;;;10.40;7.75;;;;;;;;;;5031648;28;20115;-78
2022/08/28 06:05:00;;;;;;;10.55;8.20;;;;;;;;;;5031725;28;20127;-78
2022/08/28 06:07:27;;;;;;;11.77;9.10;;;;;;;;;;5031329;28;20452;-78
2022/08/28 06:09:53;;;;;;;9.07;8.15;;;;;;;;;;5031610;28;20049;-78
2022/08/28 06:12:20;;;;;;;12.75;8.77;;;;;;;;;;5031178;28;20107;-78
2022/08/28 06:14:46;;;;;;;11.27;8.30;;;;;;;;;;5033445;28;20081;-78
2022/08/28 06:17:13;;;;;;;13.05;7.88;;;;;;;;;;5035325;28;20500;-78
2022/08/28 06:19:39;;;;;;;10.40;7.88;;;;;;;;;;5035281;28;20521;-78
2022/08/28 06:22:09;;;;;;;10.77;7.88;;;;;;;;;;5035318;28;20050;-78
2022/08/28 06:24:36;;;;;;;10.15;8.27;;;;;;;;;;5035393;28;20104;-78
2022/08/28 06:27:02;;;;;;;13.52;7.90;;;;;;;;;;5035686;28;20099;-78
2022/08/28 06:29:29;;;;;;;9.30;8.23;;;;;;;;;;5035093;28;20042;-78
2022/08/28 06:31:57;;;;;;;9.10;8.20;;;;;;;;;;5035406;28;20115;-78
2022/08/28 06:34:24;;;;;;;11.93;8.98;;;;;;;;;;5035084;28;20045;-78
2022/08/28 06:36:50;;;;;;;9.10;8.13;;;;;;;;;;5035185;28;20045;-78
2022/08/28 06:39:20;;;;;;;11.57;7.57;;;;;;;;;;5035204;28;20456;-78
2022/08/28 06:41:46;;;;;;;6.18;5.43;;;;;;;;;;5034736;28;20049;-78
2022/08/28 06:44:17;;;;;;;9.05;7.75;;;;;;;;;;5034984;28;20517;-78
2022/08/28 06:46:44;;;;;;;9.88;7.65;;;;;;;;;;5035072;28;20187;-78
2022/08/28 06:49:11;;;;;;;9.45;8.13;;;;;;;;;;5033679;28;20053;-79
2022/08/28 06:51:38;;;;;;;6.15;5.57;;;;;;;;;;5034986;28;20173;-78
2022/08/28 06:54:04;;;;;;;6.60;5.83;;;;;;;;;;5034901;28;20567;-78
2022/08/28 06:56:31;;;;;;;5.95;4.13;;;;;;;;;;5034790;28;20100;-78
2022/08/28 06:58:58;;;;;;;6.10;4.20;;;;;;;;;;5033540;28;20104;-78
2022/08/28 07:01:28;;;;;;;6.77;4.60;;;;;;;;;;5034574;28;20085;-78
2022/08/28 07:04:00;;;;;;;4.65;3.30;;;;;;;;;;5034753;28;20046;-78
2022/08/28 07:06:29;;;;;;;5.82;3.78;;;;;;;;;;5034505;28;20057;-78
2022/08/28 07:08:55;;;;;;;4.47;2.50;;;;;;;;;;5034299;28;20569;-78
2022/08/28 07:11:26;;;;;;;5.05;2.63;;;;;;;;;;5034011;28;20046;-78
2022/08/28 07:13:53;;;;;;;2.58;2.20;;;;;;;;;;5034211;28;20089;-78
2022/08/28 07:16:21;;;;;;;5.00;2.22;;;;;;;;;;5034141;28;20464;-78
2022/08/28 07:18:48;;;;;;;4.43;2.38;;;;;;;;;;5033400;28;20128;-78
2022/08/28 07:21:14;;;;;;;3.40;2.20;;;;;;;;;;5033469;28;20065;-79
2022/08/28 07:23:41;;;;;;;2.40;1.80;;;;;;;;;;5033898;28;20057;-78
2022/08/28 07:26:10;;;;;;;3.38;1.88;;;;;;;;;;5033582;28;20088;-78
2022/08/28 07:28:36;;;;;;;3.63;2.05;;;;;;;;;;5034251;28;20547;-77
2022/08/28 07:31:04;;;;;;;4.10;2.00;;;;;;;;;;5032733;28;20053;-77
2022/08/28 07:33:32;;;;;;;3.38;2.13;;;;;;;;;;5033357;28;20361;-75
2022/08/28 07:35:59;;;;;;;5.10;2.42;;;;;;;;;;5033193;28;20340;-77
2022/08/28 07:38:26;;;;;;;3.42;2.15;;;;;;;;;;5033273;28;20134;-78
2022/08/28 07:40:53;;;;;;;2.22;1.88;;;;;;;;;;5033969;28;20092;-78
2022/08/28 07:46:06;;;;;;;3.00;1.73;;;;;;;;;;5033576;28;20421;-76
2022/08/28 07:48:34;;;;;;;2.00;1.58;;;;;;;;;;5033412;28;20076;-78
2022/08/28 07:51:01;;;;;;;2.97;1.98;;;;;;;;;;5032832;28;20092;-75
2022/08/28 07:53:27;;;;;;;2.50;2.00;;;;;;;;;;5032889;28;20045;-78
2022/08/28 07:55:59;;;;;;;1.73;1.45;;;;;;;;;;5033303;28;20052;-79
2022/08/28 07:58:26;;;;;;;4.20;1.83;;;;;;;;;;5032975;28;20042;-77
2022/08/28 08:00:52;;;;;;;2.97;1.53;;;;;;;;;;5033411;28;20132;-80
2022/08/28 08:03:19;;;;;;;3.20;1.50;;;;;;;;;;5033166;28;20406;-80
2022/08/28 08:05:52;;;;;;;1.65;1.45;;;;;;;;;;5031743;28;20049;-79
2022/08/28 08:08:20;;;;;;;3.53;1.50;;;;;;;;;;5020639;28;20496;-78
2022/08/28 08:10:58;;;;;;;3.20;1.40;;;;;;;;;;5032674;28;20100;-78
2022/08/28 08:13:26;;;;;;;2.03;1.80;;;;;;;;;;5032859;28;20045;-77
2022/08/28 08:15:53;;;;;;;3.75;1.50;;;;;;;;;;5032462;28;20460;-78
2022/08/28 08:18:19;;;;;;;2.95;1.60;;;;;;;;;;5032607;28;20057;-80
2022/08/28 08:20:50;;;;;;;2.75;1.60;;;;;;;;;;5030150;28;20061;-80
2022/08/28 08:23:16;;;;;;;4.28;1.70;;;;;;;;;;5032757;28;20124;-75
2022/08/28 08:25:52;;;;;;;2.70;1.75;;;;;;;;;;5032417;28;20486;-75
2022/08/28 08:28:19;;;;;;;5.75;3.20;;;;;;;;;;5030613;28;20077;-76
2022/08/28 08:30:46;;;;;;;3.33;1.30;;;;;;;;;;5032112;28;20050;-70
2022/08/28 08:33:13;;;;;;;2.70;1.90;;;;;;;;;;5032150;28;20137;-76
2022/08/28 08:35:40;;;;;;;3.03;2.00;;;;;;;;;;5032224;28;20085;-75
2022/08/28 08:38:08;;;;;;;5.53;3.10;;;;;;;;;;5031343;28;20085;-72
2022/08/28 08:40:35;;;;;;;3.03;1.55;;;;;;;;;;5032344;28;20478;-76
2022/08/28 08:43:02;;;;;;;3.47;1.10;;;;;;;;;;5032041;28;20049;-79
2022/08/28 08:45:29;;;;;;;3.53;0.80;;;;;;;;;;5029243;28;20103;-77
2022/08/28 08:47:56;;;;;;;2.05;1.15;;;;;;;;;;5031956;28;20049;-77
2022/08/28 08:50:27;;;;;;;4.25;0.98;;;;;;;;;;5031885;28;20088;-76
2022/08/28 08:52:53;;;;;;;3.45;0.90;;;;;;;;;;5031379;28;20072;-77
2022/08/28 08:55:22;;;;;;;2.38;1.00;;;;;;;;;;5031681;28;20046;-80
2022/08/28 08:57:52;;;;;;;3.78;1.13;;;;;;;;;;5031536;28;20049;-77
2022/08/28 09:00:18;;;;;;;1.77;0.90;;;;;;;;;;5031745;28;20057;-78
2022/08/28 09:03:08;;;;;;;2.08;0.88;;;;;;;;;;5031510;28;20494;-80
2022/08/28 09:05:51;;;;;;;3.78;0.93;;;;;;;;;;5031186;28;20069;-80
2022/08/28 09:08:23;;;;;;;2.92;1.10;;;;;;;;;;5031847;28;20050;-83
2022/08/28 09:11:01;;;;;;;2.30;1.05;;;;;;;;;;5031909;28;20132;-75
2022/08/28 09:13:43;;;;;;;2.05;0.77;;;;;;;;;;5031703;28;20095;-79
2022/08/28 09:16:15;;;;;;;2.45;0.82;;;;;;;;;;5031603;28;20045;-78
2022/08/28 09:18:41;;;;;;;2.17;0.63;;;;;;;;;;5032150;28;20045;-77
2022/08/28 09:21:08;;;;;;;3.35;0.90;;;;;;;;;;5027985;28;20061;-79
2022/08/28 09:23:34;;;;;;;1.67;0.60;;;;;;;;;;5031624;28;20083;-76
2022/08/28 09:26:07;;;;;;;4.30;0.80;;;;;;;;;;5031359;28;20663;-74
2022/08/28 09:28:39;;;;;;;1.70;0.67;;;;;;;;;;5031216;28;20041;-75
2022/08/28 09:31:12;;;;;;;1.70;0.70;;;;;;;;;;5030997;28;20755;-76
2022/08/28 09:33:41;;;;;;;1.30;0.47;;;;;;;;;;5029801;28;20132;-75
2022/08/28 09:36:27;;;;;;;3.13;0.55;;;;;;;;;;5031109;28;20049;-76
2022/08/28 09:39:04;;;;;;;1.97;0.60;;;;;;;;;;5031001;28;20057;-77
2022/08/28 09:44:16;;;;;;;0.77;0.52;;;;;;;;;;5031386;28;20103;-77
2022/08/28 09:46:47;;;;;;;1.35;0.40;;;;;;;;;;5031360;28;20053;-78
2022/08/28 09:49:13;;;;;;;1.67;0.40;;;;;;;;;;5030405;28;20053;-78
2022/08/28 09:51:40;;;;;;;2.30;0.43;;;;;;;;;;5030651;28;20065;-78
2022/08/28 09:54:07;;;;;;;;;;;;;;;;;;5031270;28;20041;-77
2022/08/28 09:56:35;;;;;;;2.03;0.40;;;;;;;;;;5030652;28;20304;-78
2022/08/28 09:59:05;;;;;;;1.23;0.40;;;;;;;;;;5030582;28;20505;-77
2022/08/28 10:01:45;;;;;;;2.80;0.80;;;;;;;;;;5030388;28;20053;-78
2022/08/28 10:04:14;;;;;;;2.78;0.70;;;;;;;;;;5030572;28;20079;-77
2022/08/28 10:07:02;;;;;;;1.90;0.70;;;;;;;;;;5030444;28;20045;-77
2022/08/28 10:09:31;;;;;;;1.00;0.38;;;;;;;;;;5029198;28;20069;-77
2022/08/28 10:11:57;;;;;;;1.40;0.38;;;;;;;;;;5030806;28;20088;-76
2022/08/28 10:14:30;;;;;;;1.90;0.40;;;;;;;;;;5030774;28;20547;-76
2022/08/28 10:17:15;;;;;;;2.05;0.47;;;;;;;;;;5030435;28;20077;-76
2022/08/28 10:20:07;;;;;;;1.83;0.30;;;;;;;;;;5030255;28;20437;-76
2022/08/28 10:22:53;;;;;;;1.83;0.20;;;;;;;;;;5030394;28;20589;-77
2022/08/28 10:25:24;;;;;;;0.90;0.20;;;;;;;;;;5038843;28;20081;-77
2022/08/28 10:28:02;;;;;;;0.40;0.20;;;;;;;;;;5029557;28;20561;-76
2022/08/28 10:30:30;;;;;;;0.38;0.20;;;;;;;;;;5031077;28;20076;-76
2022/08/28 10:33:01;;;;;;;1.27;0.40;;;;;;;;;;5030903;28;20060;-78
2022/08/28 10:35:57;;;;;;;1.45;0.25;;;;;;;;;;5030844;28;20080;-77
2022/08/28 10:38:42;;;;;;;1.05;0.35;;;;;;;;;;5029790;28;20580;-77
2022/08/28 10:41:15;;;;;;;1.25;0.35;;;;;;;;;;5030248;28;20099;-77
2022/08/28 10:43:49;;;;;;;0.70;0.22;;;;;;;;;;5030744;28;20077;-77
2022/08/28 10:46:27;;;;;;;1.23;0.40;;;;;;;;;;5030043;28;20099;-78
2022/08/28 10:49:09;;;;;;;1.10;0.40;;;;;;;;;;5029490;28;20165;-78
2022/08/28 10:51:35;;;;;;;1.27;0.45;;;;;;;;;;5030771;28;20091;-76
2022/08/28 10:54:11;;;;;;;0.68;0.20;;;;;;;;;;5030684;28;20160;-78
2022/08/28 10:56:42;;;;;;;0.55;0.10;;;;;;;;;;5030594;28;20077;-79
2022/08/28 10:59:09;;;;;;;0.93;0.40;;;;;;;;;;5030641;28;20068;-78
2022/08/28 11:01:35;;;;;;;;;;;;;;;;;;5033020;28;20049;-82
2022/08/28 11:04:04;;;;;;;1.17;0.20;;;;;;;;;;5032517;28;19937;-81
2022/08/28 11:06:32;;;;;;;1.10;0.25;;;;;;;;;;5034032;28;20547;-77
2022/08/28 11:08:58;;;;;;;;;;;;;;;;;;5034466;28;20081;-79
2022/08/28 11:11:39;;;;;;;0.43;0.20;;;;;;;;;;5032791;28;19980;-77
2022/08/28 11:14:06;;;;;;;1.25;0.20;;;;;;;;;;5033543;28;20560;-84
2022/08/28 11:16:32;;;;;;;0.93;0.28;;;;;;;;;;5033749;28;20108;-75
2022/08/28 11:19:18;;;;;;;1.25;0.20;;;;;;;;;;5034101;28;20391;-75
2022/08/28 11:21:47;;;;;;;1.55;0.38;;;;;;;;;;5031535;28;20121;-78
2022/08/28 11:24:32;;;;;;;1.33;0.30;;;;;;;;;;5033928;28;20127;-76
2022/08/28 11:27:18;;;;;;;0.05;0.00;;;;;;;;;;5033882;28;20063;-76
2022/08/28 11:29:56;;;;;;;2.17;0.30;;;;;;;;;;5019524;28;20100;-78
2022/08/28 11:32:35;;;;;;;1.00;0.10;;;;;;;;;;5033731;28;20053;-77
2022/08/28 11:35:06;;;;;;;2.00;0.45;;;;;;;;;;5033720;28;20049;-82
2022/08/28 11:37:36;;;;;;;2.90;0.22;;;;;;;;;;5033650;28;20111;-79
2022/08/28 11:40:39;;;;;;;1.92;0.30;;;;;;;;;;5033687;28;20053;-77
2022/08/28 11:43:14;;;;;;;0.63;0.20;;;;;;;;;;5033153;28;20133;-78
2022/08/28 11:45:42;;;;;;;0.60;0.20;;;;;;;;;;5033266;28;20451;-78
2022/08/28 11:48:33;;;;;;;0.63;0.20;;;;;;;;;;5033470;28;20053;-76
2022/08/28 11:51:05;;;;;;;0.75;0.20;;;;;;;;;;5032490;28;20454;-77
2022/08/28 11:53:32;;;;;;;1.17;0.30;;;;;;;;;;5033161;28;20489;-81
2022/08/28 11:56:04;;;;;;;0.38;0.20;;;;;;;;;;5033231;28;20442;-79
2022/08/28 11:58:34;;;;;;;0.75;0.15;;;;;;;;;;5033294;28;20398;-77
2022/08/28 12:01:01;;;;;;;1.38;0.20;;;;;;;;;;5031777;28;20046;-77
2022/08/28 12:03:27;;;;;;;0.20;0.10;;;;;;;;;;5033161;28;20551;-76
2022/08/28 12:05:53;;;;;;;;;;;;;;;;;;5033324;28;20049;-76
2022/08/28 12:08:38;;;;;;;0.90;0.40;;;;;;;;;;5029925;28;19965;-77
2022/08/28 12:11:05;;;;;;;1.10;0.22;;;;;;;;;;5031218;28;20091;-77
2022/08/28 12:13:31;;;;;;;;;;;;;;;;;;5032613;28;20085;-77
2022/08/28 12:16:06;;;;;;;2.50;1.15;;;;;;;;;;5031461;28;19979;-77
2022/08/28 12:18:39;;;;;;;1.03;0.53;;;;;;;;;;5032036;28;20091;-77
2022/08/28 12:21:11;;;;;;;0.77;0.30;;;;;;;;;;5032446;28;20096;-77
2022/08/28 12:23:42;;;;;;;1.08;0.30;;;;;;;;;;5033001;28;20104;-77
2022/08/28 12:26:47;;;;;;;0.68;0.20;;;;;;;;;;5033092;28;20559;-77
2022/08/28 12:29:34;;;;;;;0.63;0.25;;;;;;;;;;5030609;28;20057;-77
2022/08/28 12:32:17;;;;;;;0.57;0.25;;;;;;;;;;5030650;28;20050;-77
2022/08/28 12:34:44;;;;;;;1.23;0.50;;;;;;;;;;5032524;28;20049;-77
2022/08/28 12:37:29;;;;;;;0.47;0.47;;;;;;;;;;5032741;28;20045;-77
2022/08/28 12:40:12;;;;;;;1.02;0.30;;;;;;;;;;5032652;28;20049;-77
2022/08/28 12:42:44;;;;;;;0.65;0.30;;;;;;;;;;5032702;28;20060;-77
2022/08/28 12:45:15;;;;;;;1.73;0.32;;;;;;;;;;5032692;28;20049;-77
2022/08/28 12:47:42;;;;;;;1.05;0.40;;;;;;;;;;5032914;28;20088;-77
2022/08/28 12:50:29;;;;;;;0.30;0.30;;;;;;;;;;5032697;28;20111;-77
2022/08/28 12:52:57;;;;;;;0.60;0.60;;;;;;;;;;5024911;28;20084;-78
2022/08/28 12:55:23;;;;;;;1.23;0.60;;;;;;;;;;5029019;28;20472;-77
2022/08/28 12:57:49;;;;;;;;;;;;;;;;;;5032455;28;20042;-77
2022/08/28 13:00:31;;;;;;;1.17;0.40;;;;;;;;;;5032078;28;19932;-78
2022/08/28 13:02:58;;;;;;;1.08;0.60;;;;;;;;;;5032222;28;20080;-77
2022/08/28 13:05:32;;;;;;;1.83;1.50;;;;;;;;;;5029636;28;20123;-76
2022/08/28 13:08:00;;;;;;;1.98;0.35;;;;;;;;;;5031876;28;20104;-78
2022/08/28 13:10:29;;;;;;;1.13;0.40;;;;;;;;;;5031770;28;20084;-77
2022/08/28 13:13:00;;;;;;;1.92;0.70;;;;;;;;;;5031740;28;20670;-77
2022/08/28 13:15:41;;;;;;;2.42;1.00;;;;;;;;;;5032134;28;20049;-76
2022/08/28 13:18:07;;;;;;;1.00;0.28;;;;;;;;;;5031404;28;20045;-75
2022/08/28 13:20:34;;;;;;;;;;;;;;;;;;5032246;28;20119;-77
2022/08/28 13:23:00;;;;;;;1.02;0.22;;;;;;;;;;5031465;28;20030;-77
2022/08/28 13:25:29;;;;;;;1.33;0.40;;;;;;;;;;5031594;28;20053;-77
2022/08/28 13:27:57;;;;;;;0.50;0.20;;;;;;;;;;5029452;28;20049;-78
2022/08/28 13:30:32;;;;;;;0.55;0.20;;;;;;;;;;5031560;28;20041;-78
2022/08/28 13:33:00;;;;;;;2.50;0.50;;;;;;;;;;5030656;28;20049;-78
2022/08/28 13:35:27;;;;;;;1.05;0.50;;;;;;;;;;5029455;28;20045;-78
2022/08/28 13:37:55;;;;;;;0.60;0.57;;;;;;;;;;5031247;28;20054;-77
2022/08/28 13:40:23;;;;;;;1.50;1.15;;;;;;;;;;5031591;28;20049;-78
2022/08/28 13:43:10;;;;;;;0.75;0.32;;;;;;;;;;5031616;28;20216;-78
2022/08/28 13:45:38;;;;;;;1.15;0.40;;;;;;;;;;5030609;28;20057;-78
2022/08/28 13:48:13;;;;;;;0.57;0.30;;;;;;;;;;5031558;28;20444;-78
2022/08/28 13:50:41;;;;;;;0.57;0.30;;;;;;;;;;5031573;28;20053;-78
2022/08/28 13:53:11;;;;;;;0.30;0.20;;;;;;;;;;5031557;28;20481;-78
2022/08/28 13:55:38;;;;;;;1.10;0.30;;;;;;;;;;5031414;28;20041;-78
2022/08/28 13:58:06;;;;;;;0.40;0.30;;;;;;;;;;5031857;28;20115;-78
2022/08/28 14:00:34;;;;;;;0.40;0.20;;;;;;;;;;5031748;28;20045;-78
2022/08/28 14:05:46;;;;;;;0.80;0.30;;;;;;;;;;5031424;28;20111;-78
2022/08/28 14:08:13;;;;;;;0.45;0.25;;;;;;;;;;5031424;28;20089;-78
2022/08/28 14:10:39;;;;;;;1.77;0.40;;;;;;;;;;5031478;28;20409;-78
2022/08/28 14:13:05;;;;;;;0.98;0.30;;;;;;;;;;5031566;28;20277;-78
2022/08/28 14:15:32;;;;;;;2.38;0.40;;;;;;;;;;5031415;28;20460;-78
2022/08/28 14:17:59;;;;;;;;;;;;;;;;;;5031827;28;20095;-78
2022/08/28 14:20:25;;;;;;;;;;;;;;;;;;5031420;28;20274;-78
2022/08/28 14:22:51;;;;;;;;;;;;;;;;;;5031607;28;19940;-78
2022/08/28 14:25:18;;;;;;;1.17;0.40;;;;;;;;;;5031461;28;19955;-78
2022/08/28 14:27:44;;;;;;;0.30;0.20;;;;;;;;;;5031206;28;20076;-78
2022/08/28 14:30:11;;;;;;;1.30;0.20;;;;;;;;;;5030973;28;20483;-78
2022/08/28 14:32:37;;;;;;;;;;;;;;;;;;5030511;28;20091;-78
2022/08/28 14:35:04;;;;;;;0.77;0.35;;;;;;;;;;5032662;28;19947;-78
2022/08/28 14:37:31;;;;;;;;;;;;;;;;;;5035505;28;20045;-78
2022/08/28 14:39:57;;;;;;;;;;;;;;;;;;5035514;28;19921;-78
2022/08/28 14:42:25;;;;;;;;;;;;;;;;;;5035373;28;19988;-78
2022/08/28 14:44:52;;;;;;;0.43;0.30;;;;;;;;;;5035032;28;19925;-78
2022/08/28 14:47:19;;;;;;;1.08;0.40;;;;;;;;;;5035070;28;20080;-78
2022/08/28 14:49:45;;;;;;;0.77;0.20;;;;;;;;;;5034732;28;20076;-78
2022/08/28 14:52:12;;;;;;;0.50;0.30;;;;;;;;;;5034854;28;20041;-78
2022/08/28 14:54:39;;;;;;;1.08;0.40;;;;;;;;;;5034717;28;20485;-78
2022/08/28 14:57:05;;;;;;;1.45;0.50;;;;;;;;;;5034592;28;20076;-78
2022/08/28 14:59:32;;;;;;;1.58;0.50;;;;;;;;;;5034960;28;20037;-78
2022/08/28 15:02:00;;;;;;;1.55;0.43;;;;;;;;;;5034974;28;20107;-78
2022/08/28 15:04:27;;;;;;;1.27;0.28;;;;;;;;;;5034453;28;20524;-78
2022/08/28 15:06:56;;;;;;;1.33;0.52;;;;;;;;;;5034534;28;20517;-78
2022/08/28 15:09:23;;;;;;;1.38;0.63;;;;;;;;;;5034365;28;20494;-78
2022/08/28 15:11:50;;;;;;;0.45;0.40;;;;;;;;;;5034301;28;20429;-78